Time;durP1;ratioP1;P1;durP2;ratioP2;P2;SDS_P1;SDS_P2;PMS_P1;PMS_P2;Temp;Humidity;BMP_temperature;BMP_pressure;BME280_temperature;BME280_humidity;BME280_pressure;Samples;Min_cycle;Max_cycle;Signal;HPM_P1;HPM_P2
2023/10/24 00:02:21;;;;;;;1.50;1.50;;;;;;;16.01;80.33;97082.00;5023770;28;20045;-56
2023/10/24 00:04:48;;;;;;;1.40;1.40;;;;;;;16.03;79.87;97081.59;5005592;28;20143;-56
2023/10/24 00:07:14;;;;;;;1.50;1.50;;;;;;;15.92;80.37;97084.44;5023880;28;20096;-58
2023/10/24 00:09:41;;;;;;;1.30;1.30;;;;;;;16.08;79.50;97070.81;5005291;28;20107;-54
2023/10/24 00:12:08;;;;;;;1.60;1.60;;;;;;;15.77;79.90;97026.25;5005910;28;20055;-55
2023/10/24 00:14:35;;;;;;;1.35;1.35;;;;;;;16.06;79.99;97067.63;5023287;28;20642;-55
2023/10/24 00:17:01;;;;;;;1.50;1.50;;;;;;;15.73;80.19;97015.06;5023448;28;20106;-56
2023/10/24 00:19:28;;;;;;;1.40;1.40;;;;;;;16.08;79.53;97059.63;5023241;28;20120;-54
2023/10/24 00:21:55;;;;;;;1.40;1.40;;;;;;;15.99;79.50;97062.09;5023281;28;20045;-56
2023/10/24 00:24:22;;;;;;;1.70;1.70;;;;;;;15.98;79.87;97060.47;5023174;28;20243;-55
2023/10/24 00:26:48;;;;;;;1.40;1.40;;;;;;;15.75;80.01;97035.03;5023000;28;20061;-55
2023/10/24 00:29:15;;;;;;;1.52;1.52;;;;;;;15.82;80.29;97034.97;5023300;28;20060;-55
2023/10/24 00:31:42;;;;;;;1.20;1.20;;;;;;;15.80;80.81;97059.75;5023208;28;20438;-55
2023/10/24 00:34:12;;;;;;;1.60;1.60;;;;;;;15.73;80.99;97059.75;5025188;28;20083;-56
2023/10/24 00:36:40;;;;;;;1.27;1.27;;;;;;;15.41;80.53;97013.59;5026966;28;20617;-56
2023/10/24 00:39:08;;;;;;;1.33;1.33;;;;;;;15.66;80.74;97054.22;5026681;28;20050;-55
2023/10/24 00:41:35;;;;;;;1.40;1.40;;;;;;;15.51;81.24;97058.22;5026953;28;20132;-55
2023/10/24 00:44:02;;;;;;;1.40;1.40;;;;;;;15.59;80.80;97054.22;5026586;28;20049;-55
2023/10/24 00:46:29;;;;;;;1.30;1.30;;;;;;;15.64;80.09;97062.19;5026432;28;20045;-55
2023/10/24 00:48:57;;;;;;;1.30;1.30;;;;;;;15.68;79.61;97057.38;5026342;28;20509;-56
2023/10/24 00:51:24;;;;;;;1.30;1.30;;;;;;;15.45;80.06;97056.22;5026609;28;20049;-56
2023/10/24 00:53:51;;;;;;;1.20;1.20;;;;;;;15.46;80.39;97053.03;5025890;28;20432;-57
2023/10/24 00:56:19;;;;;;;1.35;1.35;;;;;;;14.96;80.18;96970.59;5026098;28;20068;-58
2023/10/24 00:58:48;;;;;;;1.38;1.38;;;;;;;15.09;80.44;96997.66;5026715;28;20139;-56
2023/10/24 01:01:15;;;;;;;1.30;1.30;;;;;;;15.54;80.62;97059.44;5026282;28;20053;-58
2023/10/24 01:03:46;;;;;;;1.50;1.50;;;;;;;15.49;80.93;97060.59;5026479;28;20054;-57
2023/10/24 01:06:14;;;;;;;1.20;1.20;;;;;;;15.32;82.09;97053.03;5026929;28;20064;-55
2023/10/24 01:08:41;;;;;;;1.27;1.27;;;;;;;15.31;82.70;97054.25;5008602;28;20057;-58
2023/10/24 01:11:08;;;;;;;1.38;1.38;;;;;;;14.88;82.49;96985.72;5026180;28;20057;-55
2023/10/24 01:13:36;;;;;;;1.40;1.40;;;;;;;14.87;82.91;96978.56;5026201;28;20073;-54
2023/10/24 01:16:02;;;;;;;1.20;1.20;;;;;;;15.37;82.74;97052.63;5025686;28;20056;-58
2023/10/24 01:18:29;;;;;;;1.30;1.30;;;;;;;15.27;82.74;97031.09;5026785;28;20137;-55
2023/10/24 01:20:56;;;;;;;1.40;1.40;;;;;;;15.31;82.96;97043.09;5025845;28;20156;-56
2023/10/24 01:23:23;;;;;;;1.40;1.40;;;;;;;14.86;83.31;96976.94;5026164;28;20574;-55
2023/10/24 01:25:51;;;;;;;1.40;1.40;;;;;;;15.30;83.62;97043.47;5025808;28;20057;-58
2023/10/24 01:28:18;;;;;;;1.30;1.30;;;;;;;15.23;84.10;97051.84;5026190;28;20525;-56
2023/10/24 01:30:45;;;;;;;1.25;1.25;;;;;;;15.16;83.23;97047.06;5007589;28;20103;-56
2023/10/24 01:33:12;;;;;;;1.30;1.30;;;;;;;14.79;82.49;97005.66;5025490;28;21331;-56
2023/10/24 01:35:39;;;;;;;1.30;1.30;;;;;;;15.06;82.21;97036.72;5025550;28;20489;-55
2023/10/24 01:38:06;;;;;;;1.20;1.20;;;;;;;15.03;81.97;97054.28;5025829;28;20542;-58
2023/10/24 01:40:32;;;;;;;1.30;1.30;;;;;;;14.61;81.93;97012.41;5025730;28;20050;-56
2023/10/24 01:42:59;;;;;;;1.38;1.38;;;;;;;14.65;82.42;97021.59;5025971;28;20060;-56
2023/10/24 01:45:26;;;;;;;1.30;1.30;;;;;;;14.56;83.16;97012.81;5007526;28;20053;-56
2023/10/24 01:47:53;;;;;;;1.15;1.15;;;;;;;14.12;83.18;96959.38;5025517;28;20559;-58
2023/10/24 01:50:20;;;;;;;1.38;1.38;;;;;;;14.79;83.49;97055.88;5025129;28;20075;-55
2023/10/24 01:52:47;;;;;;;1.35;1.35;;;;;;;14.72;83.91;97060.63;5025577;28;20404;-56
2023/10/24 01:55:13;;;;;;;1.30;1.30;;;;;;;14.87;84.31;97051.84;5005583;28;20046;-56
2023/10/24 01:57:40;;;;;;;1.20;1.20;;;;;;;14.62;84.06;97033.53;5005827;28;20053;-57
2023/10/24 02:00:07;;;;;;;1.10;1.10;;;;;;;14.65;85.05;97049.47;5005426;28;20137;-55
2023/10/24 02:02:34;;;;;;;1.15;1.15;;;;;;;14.75;84.41;97048.66;5005561;28;20054;-56
2023/10/24 02:05:01;;;;;;;1.20;1.20;;;;;;;14.39;83.60;96980.13;4987685;28;20058;-55
2023/10/24 02:07:28;;;;;;;1.20;1.20;;;;;;;14.20;83.71;96967.34;5005340;28;20050;-57
2023/10/24 02:09:55;;;;;;;1.10;1.10;;;;;;;14.71;83.72;97053.44;5005449;28;20053;-56
2023/10/24 02:12:22;;;;;;;1.20;1.20;;;;;;;14.72;84.06;97043.88;5005395;28;20049;-56
2023/10/24 02:14:49;;;;;;;1.20;1.20;;;;;;;14.76;83.82;97050.28;5005193;28;20595;-56
2023/10/24 02:17:15;;;;;;;1.20;1.20;;;;;;;14.60;84.41;97044.28;5005637;28;20049;-57
2023/10/24 02:19:43;;;;;;;1.15;1.15;;;;;;;14.59;84.43;97062.22;5005502;28;20257;-55
2023/10/24 02:22:10;;;;;;;1.13;1.13;;;;;;;14.64;83.98;97047.84;5005432;28;20057;-56
2023/10/24 02:24:37;;;;;;;1.27;1.27;;;;;;;14.54;84.80;97052.22;5005598;28;20057;-56
2023/10/24 02:27:04;;;;;;;1.15;1.15;;;;;;;14.44;85.48;97049.44;5004816;28;20054;-56
2023/10/24 02:29:33;;;;;;;1.30;1.30;;;;;;;14.47;85.61;97048.63;5005057;28;20081;-59
2023/10/24 02:32:02;;;;;;;1.30;1.30;;;;;;;13.96;85.73;96968.09;5005386;28;20050;-56
2023/10/24 02:34:30;;;;;;;1.15;1.15;;;;;;;13.65;85.88;96925.06;4987499;28;20050;-56
2023/10/24 02:36:57;;;;;;;1.13;1.13;;;;;;;14.40;86.59;97054.97;5005148;28;20045;-56
2023/10/24 02:39:23;;;;;;;1.20;1.20;;;;;;;14.40;86.53;97054.22;5005267;28;20054;-57
2023/10/24 02:41:51;;;;;;;1.20;1.20;;;;;;;14.41;87.14;97056.59;5003670;28;20050;-57
2023/10/24 02:44:19;;;;;;;1.13;1.13;;;;;;;14.39;87.32;97058.97;5003723;28;20061;-56
2023/10/24 02:46:46;;;;;;;1.20;1.20;;;;;;;14.44;87.60;97055.00;5003414;28;20527;-56
2023/10/24 02:49:13;;;;;;;1.08;1.08;;;;;;;14.35;87.04;97049.78;5004842;28;20049;-56
2023/10/24 02:51:40;;;;;;;1.17;1.17;;;;;;;14.32;86.94;97041.44;5004614;28;20057;-56
2023/10/24 02:54:07;;;;;;;1.10;1.10;;;;;;;14.38;87.19;97062.16;5014918;28;20045;-59
2023/10/24 02:56:34;;;;;;;1.20;1.20;;;;;;;14.11;88.21;97047.72;5024258;28;20424;-56
2023/10/24 02:59:01;;;;;;;1.17;1.17;;;;;;;13.93;88.47;97040.47;5024587;28;20053;-56
2023/10/24 03:01:28;;;;;;;1.15;1.15;;;;;;;14.11;89.48;97080.34;5006760;28;20535;-59
2023/10/24 03:03:55;;;;;;;1.20;1.20;;;;;;;14.24;88.81;97070.44;5024217;28;20056;-56
2023/10/24 03:06:21;;;;;;;1.10;1.10;;;;;;;14.30;88.04;97066.13;5024183;28;20049;-56
2023/10/24 03:08:48;;;;;;;1.00;1.00;;;;;;;13.76;87.62;96991.91;5006499;28;20474;-59
2023/10/24 03:11:25;;;;;;;1.20;1.20;;;;;;;14.32;87.64;97069.31;5024209;28;20056;-56
2023/10/24 03:13:53;;;;;;;1.20;1.20;;;;;;;14.28;88.29;97079.63;5024540;28;20077;-57
2023/10/24 03:16:20;;;;;;;1.00;1.00;;;;;;;14.33;88.06;97076.47;5006122;28;20047;-56
2023/10/24 03:18:48;;;;;;;1.13;1.13;;;;;;;14.05;88.01;97015.06;5023561;28;20053;-59
2023/10/24 03:21:14;;;;;;;1.20;1.20;;;;;;;14.42;87.42;97079.69;5023798;28;20063;-56
2023/10/24 03:23:41;;;;;;;1.17;1.17;;;;;;;14.44;87.79;97077.31;5006230;28;20132;-56
2023/10/24 03:26:08;;;;;;;1.27;1.27;;;;;;;13.82;87.74;96983.94;5023434;28;20050;-55
2023/10/24 03:28:35;;;;;;;1.20;1.20;;;;;;;14.40;87.42;97065.34;5023551;28;20431;-57
2023/10/24 03:31:03;;;;;;;1.20;1.20;;;;;;;13.98;87.12;97009.47;5023488;28;20850;-54
2023/10/24 03:33:31;;;;;;;1.27;1.27;;;;;;;14.16;87.64;97046.53;5023935;28;20053;-54
2023/10/24 03:35:58;;;;;;;1.20;1.20;;;;;;;14.33;87.54;97070.91;5023087;28;20149;-54
2023/10/24 03:38:26;;;;;;;1.20;1.20;;;;;;;13.90;88.22;97030.94;5023602;28;20056;-54
2023/10/24 03:40:54;;;;;;;1.23;1.23;;;;;;;14.00;88.61;97040.50;5023270;28;20064;-56
2023/10/24 03:43:21;;;;;;;1.10;1.10;;;;;;;14.03;88.76;97042.50;5023592;28;20115;-56
2023/10/24 03:45:49;;;;;;;1.30;1.30;;;;;;;13.92;88.84;97027.75;5023658;28;20136;-55
2023/10/24 03:48:15;;;;;;;1.30;1.30;;;;;;;13.76;89.38;97002.22;5023516;28;20051;-54
2023/10/24 03:50:42;;;;;;;1.02;1.02;;;;;;;14.13;88.75;97044.53;5023400;28;20058;-55
2023/10/24 03:53:09;;;;;;;1.17;1.17;;;;;;;14.19;88.78;97065.25;5023601;28;20057;-57
2023/10/24 03:55:36;;;;;;;1.10;1.10;;;;;;;14.11;88.14;97060.84;5023311;28;20488;-54
2023/10/24 03:58:02;;;;;;;1.10;1.10;;;;;;;14.23;87.82;97071.63;5023283;28;20083;-55
2023/10/24 04:00:30;;;;;;;1.10;1.10;;;;;;;14.17;87.65;97082.38;5005841;28;20050;-59
2023/10/24 04:02:57;;;;;;;1.17;1.17;;;;;;;13.88;87.17;97085.44;5005769;28;20056;-54
2023/10/24 04:05:24;;;;;;;1.10;1.10;;;;;;;14.00;87.55;97079.50;5023454;28;20535;-58
2023/10/24 04:07:50;;;;;;;1.13;1.13;;;;;;;13.94;87.13;97070.72;5023594;28;20053;-55
2023/10/24 04:10:17;;;;;;;1.23;1.23;;;;;;;14.01;86.62;97081.91;5009408;28;20576;-55
2023/10/24 04:12:44;;;;;;;1.05;1.05;;;;;;;13.93;87.16;97068.31;5027066;28;20057;-57
2023/10/24 04:15:10;;;;;;;1.10;1.10;;;;;;;13.83;87.92;97069.09;5026610;28;20056;-55
2023/10/24 04:17:37;;;;;;;1.25;1.25;;;;;;;13.46;88.10;97010.84;5027232;28;20045;-55
2023/10/24 04:20:06;;;;;;;1.10;1.10;;;;;;;13.99;87.76;97072.34;5027011;28;20511;-55
2023/10/24 04:22:33;;;;;;;1.17;1.17;;;;;;;13.94;88.32;97076.28;5027014;28;20059;-55
2023/10/24 04:25:00;;;;;;;1.20;1.20;;;;;;;13.89;88.74;97073.09;5026689;28;20425;-55
2023/10/24 04:27:26;;;;;;;1.00;1.00;;;;;;;13.92;89.33;97089.03;5026667;28;20132;-57
2023/10/24 04:29:53;;;;;;;1.00;1.00;;;;;;;13.86;89.10;97094.19;5009234;28;20060;-55
2023/10/24 04:32:20;;;;;;;1.17;1.17;;;;;;;13.91;89.09;97102.13;5026871;28;20096;-56
2023/10/24 04:34:51;;;;;;;1.20;1.20;;;;;;;13.89;88.79;97100.94;5027047;28;20226;-55
2023/10/24 04:37:18;;;;;;;1.00;1.00;;;;;;;13.86;88.33;97093.38;5009233;28;20153;-55
2023/10/24 04:39:45;;;;;;;1.17;1.17;;;;;;;13.39;87.95;97039.44;5026885;28;20561;-55
2023/10/24 04:42:12;;;;;;;1.00;1.00;;;;;;;13.58;88.14;97058.63;5026527;28;20123;-55
2023/10/24 04:44:38;;;;;;;1.10;1.10;;;;;;;13.80;88.90;97108.84;5026194;28;20045;-57
2023/10/24 04:47:05;;;;;;;1.10;1.10;;;;;;;13.83;88.67;97092.16;5025304;28;20061;-54
2023/10/24 04:49:35;;;;;;;1.10;1.10;;;;;;;13.96;88.81;97112.13;5026267;28;20053;-55
2023/10/24 04:52:02;;;;;;;1.20;1.20;;;;;;;13.93;89.03;97107.31;5026613;28;20053;-58
2023/10/24 04:54:28;;;;;;;1.10;1.10;;;;;;;13.74;88.24;97071.44;5025884;28;20049;-55
2023/10/24 04:56:55;;;;;;;1.20;1.20;;;;;;;14.16;87.72;97116.19;5008703;28;20487;-58
2023/10/24 04:59:21;;;;;;;1.15;1.15;;;;;;;14.10;87.95;97117.75;5026238;28;20055;-55
2023/10/24 05:01:48;;;;;;;1.00;1.00;;;;;;;14.13;88.37;97120.53;5026281;28;20057;-56
2023/10/24 05:04:19;;;;;;;1.10;1.10;;;;;;;13.97;88.63;97124.84;5009140;28;20436;-57
2023/10/24 05:06:46;;;;;;;1.02;1.02;;;;;;;14.10;88.26;97134.47;5006965;28;20168;-54
2023/10/24 05:09:16;;;;;;;1.10;1.10;;;;;;;14.17;87.28;97140.06;5006587;28;20072;-56
2023/10/24 05:11:44;;;;;;;1.30;1.30;;;;;;;14.23;85.35;97138.50;5006122;28;20053;-55
2023/10/24 05:14:10;;;;;;;1.20;1.20;;;;;;;14.19;84.23;97151.63;5006695;28;20054;-55
2023/10/24 05:16:40;;;;;;;1.10;1.10;;;;;;;14.07;82.76;97149.19;5006129;28;20054;-57
2023/10/24 05:19:07;;;;;;;1.13;1.13;;;;;;;14.22;82.85;97153.63;5021115;28;20050;-55
2023/10/24 05:21:33;;;;;;;1.20;1.20;;;;;;;14.27;81.37;97139.34;5006311;28;20050;-56
2023/10/24 05:24:00;;;;;;;1.17;1.17;;;;;;;14.38;82.19;97173.63;5005991;28;20060;-56
2023/10/24 05:26:27;;;;;;;1.20;1.20;;;;;;;14.48;82.91;97175.69;5004689;28;20115;-56
2023/10/24 05:28:54;;;;;;;1.17;1.17;;;;;;;14.46;83.84;97169.69;5004422;28;20050;-56
2023/10/24 05:31:21;;;;;;;1.20;1.20;;;;;;;14.45;84.03;97162.50;5004932;28;20500;-55
2023/10/24 05:33:49;;;;;;;1.13;1.13;;;;;;;14.63;85.16;97185.69;5005096;28;20052;-56
2023/10/24 05:36:17;;;;;;;1.15;1.15;;;;;;;14.86;84.72;97183.34;5004814;28;20147;-56
2023/10/24 05:38:44;;;;;;;1.30;1.30;;;;;;;15.03;84.01;97172.22;5005032;28;20129;-57
2023/10/24 05:41:11;;;;;;;1.33;1.33;;;;;;;15.06;84.17;97181.81;5004181;28;20060;-56
2023/10/24 05:43:39;;;;;;;1.17;1.17;;;;;;;15.10;84.41;97166.66;5004900;28;20045;-56
2023/10/24 05:46:06;;;;;;;1.30;1.30;;;;;;;12.94;83.43;96828.59;5005658;28;20057;-56
2023/10/24 05:48:35;;;;;;;1.30;1.30;;;;;;;15.27;82.97;97153.13;5024320;28;20052;-63
2023/10/24 05:51:02;;;;;;;1.40;1.40;;;;;;;15.48;81.80;97170.69;5006800;28;20432;-62
2023/10/24 05:53:29;;;;;;;1.42;1.42;;;;;;;15.76;81.79;97193.03;5024533;28;20495;-56
2023/10/24 05:55:55;;;;;;;1.65;1.65;;;;;;;15.30;81.34;97135.59;5024244;28;20072;-56
2023/10/24 05:58:23;;;;;;;1.30;1.30;;;;;;;15.77;80.55;97189.06;5006518;28;20555;-56
2023/10/24 06:00:51;;;;;;;1.60;1.60;;;;;;;16.29;80.24;97193.75;5024449;28;20056;-63
2023/10/24 06:03:19;;;;;;;1.45;1.45;;;;;;;13.91;78.93;96820.09;5025064;28;20081;-56
2023/10/24 06:05:49;;;;;;;1.70;1.70;;;;;;;16.71;78.15;97186.41;5024418;28;20049;-56
2023/10/24 06:08:16;;;;;;;1.38;1.38;;;;;;;16.76;78.15;97195.16;5023905;28;20045;-63
2023/10/24 06:10:43;;;;;;;1.50;1.50;;;;;;;16.90;76.99;97189.50;5023922;28;20056;-56
2023/10/24 06:13:16;;;;;;;;;;;;;;;17.03;76.03;97193.44;5024184;28;20049;-63
2023/10/24 06:15:43;;;;;;;1.40;1.40;;;;;;;16.98;75.26;97193.06;5021463;28;19924;-64
2023/10/24 06:18:10;;;;;;;1.60;1.60;;;;;;;15.52;74.60;96980.84;5018158;28;20094;-67
2023/10/24 06:20:40;;;;;;;1.70;1.70;;;;;;;17.31;74.28;97203.66;5023633;28;20053;-61
2023/10/24 06:23:07;;;;;;;1.70;1.70;;;;;;;17.09;73.95;97143.41;5022296;28;20136;-64
2023/10/24 06:25:38;;;;;;;1.80;1.80;;;;;;;17.68;73.78;97212.22;5023063;28;20089;-64
2023/10/24 06:28:06;;;;;;;1.77;1.77;;;;;;;17.02;72.59;97093.09;5023594;28;20508;-57
2023/10/24 06:30:34;;;;;;;1.90;1.90;;;;;;;17.52;71.98;97127.91;5023603;28;20447;-66
2023/10/24 06:33:02;;;;;;;1.70;1.70;;;;;;;17.22;71.34;97077.31;5005230;28;20096;-65
2023/10/24 06:35:29;;;;;;;1.67;1.67;;;;;;;18.05;71.07;97198.28;5023011;28;20518;-63
2023/10/24 06:37:56;;;;;;;1.70;1.70;;;;;;;18.02;70.77;97154.22;5011906;28;20600;-55
2023/10/24 06:40:23;;;;;;;1.90;1.90;;;;;;;18.32;70.29;97157.09;5023247;28;20051;-56
2023/10/24 06:42:51;;;;;;;1.88;1.88;;;;;;;18.58;69.92;97170.47;5023013;28;20120;-58
2023/10/24 06:45:18;;;;;;;1.70;1.70;;;;;;;18.59;69.75;97141.19;5022303;28;20124;-63
2023/10/24 06:47:44;;;;;;;1.75;1.75;;;;;;;16.79;69.19;96878.22;5016226;28;20045;-63
2023/10/24 06:50:11;;;;;;;2.00;2.00;;;;;;;19.23;68.21;97181.22;5012439;28;20053;-69
2023/10/24 06:52:41;;;;;;;1.70;1.70;;;;;;;19.43;67.75;97193.38;5014611;28;20187;-57
2023/10/24 06:55:09;;;;;;;1.90;1.90;;;;;;;19.64;67.06;97180.19;5023883;28;20064;-64
2023/10/24 06:57:36;;;;;;;1.83;1.83;;;;;;;19.73;66.16;97184.06;5022591;28;20177;-55
2023/10/24 07:00:03;;;;;;;2.00;2.00;;;;;;;19.87;65.66;97183.03;4988799;28;20483;-56
2023/10/24 07:02:33;;;;;;;1.80;1.80;;;;;;;18.95;65.20;97004.72;5003827;28;20817;-59
2023/10/24 07:05:00;;;;;;;2.20;2.20;;;;;;;20.32;64.30;97175.81;5005843;28;20057;-69
2023/10/24 07:07:27;;;;;;;2.20;2.20;;;;;;;20.21;63.42;97135.81;5005178;28;20057;-61
2023/10/24 07:09:54;;;;;;;2.05;2.05;;;;;;;20.51;62.51;97189.09;5021433;28;20052;-57
2023/10/24 07:12:21;;;;;;;1.98;1.98;;;;;;;20.55;62.71;97178.59;5021106;28;20060;-57
2023/10/24 07:14:52;;;;;;;2.17;2.17;;;;;;;20.66;62.86;97181.97;5023257;28;20045;-56
2023/10/24 07:17:19;;;;;;;2.20;2.20;;;;;;;20.85;61.34;97178.34;5003301;28;20444;-68
2023/10/24 07:19:46;;;;;;;2.38;2.33;;;;;;;21.03;60.96;97170.34;5019554;28;20045;-56
2023/10/24 07:22:13;;;;;;;1.95;1.95;;;;;;;21.14;60.11;97176.53;4996896;28;20435;-55
2023/10/24 07:24:40;;;;;;;2.42;2.35;;;;;;;20.94;59.74;97172.94;5021159;28;20145;-57
2023/10/24 07:27:09;;;;;;;2.22;2.22;;;;;;;21.23;58.83;97128.81;5012552;28;20115;-68
2023/10/24 07:29:36;;;;;;;2.30;2.30;;;;;;;21.68;58.53;97155.13;5021000;28;20077;-56
2023/10/24 07:32:03;;;;;;;2.30;2.30;;;;;;;21.57;57.94;97103.84;5022408;28;20056;-56
2023/10/24 07:34:33;;;;;;;2.42;2.33;;;;;;;21.83;57.39;97128.16;5019394;28;20488;-66
2023/10/24 07:37:00;;;;;;;2.15;2.15;;;;;;;21.71;57.85;97154.22;5018723;28;20053;-57
2023/10/24 07:39:27;;;;;;;2.67;2.58;;;;;;;22.17;56.74;97148.22;5023369;28;20046;-64
2023/10/24 07:41:54;;;;;;;2.65;2.55;;;;;;;22.40;56.04;97145.16;5022945;28;20054;-66
2023/10/24 07:44:20;;;;;;;2.42;2.33;;;;;;;22.46;55.13;97137.72;5004507;28;20069;-64
2023/10/24 07:46:47;;;;;;;2.50;2.40;;;;;;;21.64;55.74;97103.63;5024427;28;20053;-64
2023/10/24 07:49:14;;;;;;;2.50;2.40;;;;;;;21.67;54.26;97011.75;5015078;28;20496;-65
2023/10/24 07:51:41;;;;;;;2.85;2.75;;;;;;;22.37;55.27;97117.81;5005813;28;20046;-61
2023/10/24 07:54:08;;;;;;;2.50;2.40;;;;;;;22.82;53.55;97119.78;5035825;28;20049;-58
2023/10/24 07:56:35;;;;;;;2.60;2.50;;;;;;;22.66;53.34;97108.56;5027254;28;20053;-57
2023/10/24 07:59:03;;;;;;;2.70;2.60;;;;;;;22.89;53.16;97113.94;5020165;28;20050;-66
2023/10/24 08:01:30;;;;;;;2.60;2.50;;;;;;;23.19;52.56;97117.00;5007603;28;20461;-62
2023/10/24 08:03:58;;;;;;;2.70;2.60;;;;;;;23.09;50.70;97058.78;5019473;28;20575;-56
2023/10/24 08:06:25;;;;;;;2.70;2.60;;;;;;;23.56;50.40;97106.94;5024929;28;20057;-58
2023/10/24 08:08:55;;;;;;;2.60;2.50;;;;;;;23.68;50.81;97103.31;5019206;28;20063;-56
2023/10/24 08:11:22;;;;;;;3.15;3.05;;;;;;;23.67;49.91;97057.28;5025724;28;20057;-56
2023/10/24 08:13:48;;;;;;;3.08;2.97;;;;;;;24.09;49.98;97094.63;5022819;28;20546;-67
2023/10/24 08:16:17;;;;;;;3.00;2.90;;;;;;;24.51;49.17;97093.09;5027064;28;20492;-57
2023/10/24 08:18:46;;;;;;;2.70;2.60;;;;;;;24.62;49.20;97070.84;5025627;28;20239;-59
2023/10/24 08:21:13;;;;;;;3.20;3.10;;;;;;;24.60;48.74;97033.66;5009395;28;20052;-58
2023/10/24 08:23:40;;;;;;;3.38;3.28;;;;;;;25.20;47.34;97057.63;5009177;28;20150;-65
2023/10/24 08:26:06;;;;;;;3.17;3.08;;;;;;;25.38;47.05;97070.31;5025926;28;20626;-68
2023/10/24 08:28:33;;;;;;;3.30;3.20;;;;;;;25.69;46.43;97073.91;5025914;28;20064;-55
2023/10/24 08:31:00;;;;;;;3.33;3.22;;;;;;;25.93;46.07;97074.88;5026139;28;20107;-64
2023/10/24 08:33:28;;;;;;;3.80;3.70;;;;;;;25.87;45.66;97056.88;5026399;28;20495;-55
2023/10/24 08:35:55;;;;;;;3.65;3.55;;;;;;;25.98;45.24;97062.88;5015094;28;20060;-69
2023/10/24 08:38:22;;;;;;;3.63;3.53;;;;;;;25.58;45.35;97062.19;5013885;28;20072;-59
2023/10/24 08:40:49;;;;;;;3.53;3.42;;;;;;;25.69;45.23;97059.72;5008027;28;20049;-56
2023/10/24 08:43:18;;;;;;;3.83;3.72;;;;;;;25.69;45.59;97056.88;5021587;28;20484;-56
2023/10/24 08:45:45;;;;;;;3.50;3.40;;;;;;;25.93;45.09;97072.03;5006913;28;20058;-61
2023/10/24 08:48:12;;;;;;;3.25;3.15;;;;;;;25.83;44.98;97033.56;5012596;28;20144;-62
2023/10/24 08:50:42;;;;;;;3.28;3.17;;;;;;;24.94;45.83;96996.72;5018961;28;20053;-56
2023/10/24 08:53:11;;;;;;;3.60;3.50;;;;;;;24.84;46.57;97068.78;5024835;28;20053;-59
2023/10/24 08:55:39;;;;;;;3.17;3.08;;;;;;;25.27;46.15;97065.06;5007611;28;20071;-57
2023/10/24 08:58:07;;;;;;;3.40;3.30;;;;;;;25.49;45.86;97065.00;5024242;28;20448;-70
2023/10/24 09:00:34;;;;;;;3.70;3.60;;;;;;;25.48;45.71;97069.09;5025704;28;20080;-59
2023/10/24 09:03:03;;;;;;;3.42;3.33;;;;;;;25.43;46.01;97066.88;5025521;28;20153;-62
2023/10/24 09:05:31;;;;;;;3.08;2.97;;;;;;;24.83;46.54;97024.69;5024905;28;20053;-65
2023/10/24 09:07:59;;;;;;;3.20;3.10;;;;;;;25.52;46.36;97059.19;5019699;28;20045;-64
2023/10/24 09:10:26;;;;;;;3.40;3.30;;;;;;;25.65;45.66;97056.22;4994036;28;20497;-67
2023/10/24 09:12:54;;;;;;;3.40;3.30;;;;;;;21.76;45.49;96439.50;5008307;28;20045;-60
2023/10/24 09:15:21;;;;;;;3.28;3.17;;;;;;;25.79;45.26;97047.09;5024482;28;20502;-65
2023/10/24 09:17:47;;;;;;;3.42;3.33;;;;;;;25.46;44.88;97003.53;5025464;28;20053;-57
2023/10/24 09:20:18;;;;;;;3.50;3.40;;;;;;;25.64;44.93;97009.25;5023204;28;20079;-66
2023/10/24 09:22:45;;;;;;;3.38;3.28;;;;;;;25.79;45.20;97044.25;5015571;28;20045;-68
2023/10/24 09:25:14;;;;;;;3.70;3.60;;;;;;;25.79;45.28;97030.06;5027617;28;20057;-56
2023/10/24 09:27:40;;;;;;;3.50;3.40;;;;;;;25.85;45.55;97045.22;5024781;28;20792;-55
2023/10/24 09:30:12;;;;;;;3.30;3.20;;;;;;;26.02;44.98;97080.59;5005625;28;20556;-56
2023/10/24 09:32:42;;;;;;;3.33;3.22;;;;;;;25.76;45.20;97033.84;5013192;28;20431;-61
2023/10/24 09:35:09;;;;;;;3.70;3.60;;;;;;;25.95;44.83;97052.47;5024776;28;20058;-62
2023/10/24 09:37:47;;;;;;;3.80;3.70;;;;;;;26.04;44.17;97035.47;5022952;28;20045;-62
2023/10/24 09:40:14;;;;;;;3.70;3.60;;;;;;;26.35;44.06;97024.75;5025653;28;20216;-62
2023/10/24 09:42:42;;;;;;;3.85;3.75;;;;;;;25.40;44.17;96869.25;5025408;28;20057;-61
2023/10/24 09:45:11;;;;;;;3.05;2.95;;;;;;;26.37;43.58;96976.75;5007936;28;20049;-54
2023/10/24 09:47:40;;;;;;;3.80;3.70;;;;;;;26.78;43.15;96992.31;5007848;28;20061;-56
2023/10/24 09:50:11;;;;;;;3.63;3.53;;;;;;;26.89;42.71;96993.38;5025195;28;20053;-55
2023/10/24 09:52:40;;;;;;;4.13;4.03;;;;;;;25.93;42.83;96896.00;5023696;28;20057;-57
2023/10/24 09:55:08;;;;;;;3.80;3.70;;;;;;;27.06;42.21;96988.91;5024437;28;20173;-72
2023/10/24 09:57:36;;;;;;;3.80;3.70;;;;;;;27.15;42.26;96986.00;5015695;28;20050;-57
2023/10/24 10:00:04;;;;;;;4.00;3.90;;;;;;;27.12;41.92;96981.28;5016820;28;20046;-57
2023/10/24 10:02:32;;;;;;;3.90;3.80;;;;;;;27.10;42.34;96957.41;5026605;28;20049;-57
2023/10/24 10:04:59;;;;;;;3.45;3.35;;;;;;;27.37;41.40;96980.84;5021629;28;20061;-57
2023/10/24 10:07:28;;;;;;;4.03;3.92;;;;;;;27.52;41.24;96981.69;5021800;28;20095;-57
2023/10/24 10:09:57;;;;;;;3.47;3.38;;;;;;;27.30;42.05;96963.38;5014030;28;20099;-64
2023/10/24 10:12:26;;;;;;;4.18;4.07;;;;;;;26.78;42.80;96972.44;5023969;28;20056;-57
2023/10/24 10:15:15;;;;;;;4.18;4.07;;;;;;;27.17;41.84;96972.09;4991970;28;20049;-68
2023/10/24 10:17:41;;;;;;;4.22;4.13;;;;;;;27.36;41.84;96965.03;5023794;28;20120;-58
2023/10/24 10:20:45;;;;;;;3.80;3.70;;;;;;;27.35;41.80;96966.31;5014499;28;20181;-67
2023/10/24 10:23:38;;;;;;;4.15;4.05;;;;;;;27.09;42.16;96958.69;5019455;28;20061;-55
2023/10/24 10:26:15;;;;;;;3.83;3.72;;;;;;;24.94;42.33;96662.25;5023168;28;20140;-57
2023/10/24 10:29:07;;;;;;;4.15;4.05;;;;;;;26.64;41.74;96865.88;5022321;28;20045;-56
2023/10/24 10:31:58;;;;;;;3.63;3.53;;;;;;;27.25;41.38;96950.53;5023267;28;20112;-61
2023/10/24 10:34:45;;;;;;;4.05;3.95;;;;;;;27.45;40.89;96945.09;5023087;28;20530;-61
2023/10/24 10:37:12;;;;;;;4.00;3.90;;;;;;;27.63;41.21;96939.25;5023493;28;20052;-58
2023/10/24 10:39:39;;;;;;;4.32;4.22;;;;;;;27.93;40.40;96932.38;5023931;28;20520;-61
2023/10/24 10:42:49;;;;;;;3.97;3.88;;;;;;;28.09;40.55;96923.38;5023577;28;20057;-68
2023/10/24 10:45:36;;;;;;;3.95;3.85;;;;;;;27.77;40.16;96873.00;4992744;28;20050;-56
2023/10/24 10:48:06;;;;;;;4.22;4.13;;;;;;;27.89;39.66;96852.06;5017250;28;20111;-59
2023/10/24 10:50:34;;;;;;;4.15;4.05;;;;;;;28.07;39.91;96868.94;5019743;28;20484;-57
2023/10/24 10:53:10;;;;;;;3.92;3.83;;;;;;;28.71;39.37;96922.41;5016024;28;20041;-58
2023/10/24 10:55:42;;;;;;;4.45;4.35;;;;;;;28.90;38.76;96916.00;5018822;28;20055;-59
2023/10/24 10:58:23;;;;;;;3.95;3.85;;;;;;;28.92;38.44;96913.44;5021119;28;20512;-62
2023/10/24 11:01:08;;;;;;;4.70;4.60;;;;;;;28.72;38.77;96924.00;5020102;28;20147;-58
2023/10/24 11:03:45;;;;;;;4.05;3.95;;;;;;;28.77;38.73;96918.38;5019892;28;20080;-57
2023/10/24 11:06:16;;;;;;;4.30;4.20;;;;;;;28.69;38.75;96910.75;5001731;28;20467;-57
2023/10/24 11:08:49;;;;;;;4.60;4.50;;;;;;;28.53;38.99;96917.75;5018719;28;20555;-55
2023/10/24 11:11:20;;;;;;;4.65;4.55;;;;;;;28.78;38.80;96913.47;5019202;28;20053;-60
2023/10/24 11:13:48;;;;;;;4.28;4.18;;;;;;;28.79;38.23;96895.06;5019274;28;20049;-56
2023/10/24 11:16:16;;;;;;;4.57;4.47;;;;;;;28.53;38.63;96905.53;5004623;28;20081;-59
2023/10/24 11:19:02;;;;;;;4.68;4.57;;;;;;;28.03;39.45;96907.44;5006501;28;20432;-60
2023/10/24 11:21:29;;;;;;;4.32;4.22;;;;;;;27.73;39.86;96900.91;5022389;28;20049;-57
2023/10/24 11:23:58;;;;;;;4.40;4.30;;;;;;;28.09;39.13;96900.59;5021739;28;20045;-63
2023/10/24 11:26:26;;;;;;;4.10;4.00;;;;;;;26.93;39.24;96664.19;5023030;28;20516;-60
2023/10/24 11:29:09;;;;;;;4.10;4.00;;;;;;;27.16;39.18;96754.31;5018202;28;20065;-58
2023/10/24 11:31:36;;;;;;;4.10;4.00;;;;;;;28.57;38.55;96889.00;5023568;28;20127;-62
2023/10/24 11:34:03;;;;;;;4.35;4.25;;;;;;;28.28;38.04;96823.47;5022959;28;20056;-58
2023/10/24 11:36:31;;;;;;;3.92;3.83;;;;;;;28.86;37.67;96894.66;5005771;28;20508;-59
2023/10/24 11:38:58;;;;;;;4.53;4.43;;;;;;;28.92;37.96;96881.28;4999961;28;20136;-58
2023/10/24 11:41:28;;;;;;;4.55;4.45;;;;;;;28.21;38.27;96786.81;5004252;28;20049;-63